Pottsville, Texas
Current Conditions -  °F | °C
As of 1:35 PM on Tuesday 21 Oct 2014 (Local Time) from KMNZ Reporting Station
Clear Clear  
Wind Chill: 79°   Ceiling: Unl
Heat Index: 79°   Visibility: 10mi
Dew Point: 54°   Wind: 7mph
Humidity: 42%   Direction: 90°E
Pressure: 30.08"   Gusts: NA
Location:  31.67°N, 98.33°W
Report Text: KMNZ 211835Z AUTO 09006KT 10SM CLR 26/12 A3008 RMK AO2 T02600120
Loading
Personal Weather Stations






























Interactive Weather Map
Tropical Storm Tracking
New forecast layout! Learn more

10-Day Weather Forecast

Advertisements
Track Severe Weather on mobile